Decoded Metar for YGLA ( in ) (IATA:) | Meteo·Mobile Aviation Weather
aviador You're here:

YGLA Decoded Metar

in
Report Time2018-10-23 09:30:00
UTC Time2018-10-23 09:48:45
Flight Rules vfr VFR
Wind060° at 07 kt
W.Decomp.*RWY 10: 5.4 kt HW 4.5 kt LCW
W.Rank060° ranks 15
Current wind is below 060° avg. (8.8)
Visibility9999 m
Phenomena:N/A
Clouds:Scattered 017 Hf
Expected CloudBase > 1,600 ft AGL from Temp-Dew spread
CeilingNone
Temp24°C
Dew Point20°C (78% RH)
QNH1015 hPa
Raw Report
METAR YGLA 230930Z AUTO 06007KT 9999 // SCT017 24/20 Q1015
RF00.0/000.0=

Extra information for YGLA:More info

Social comments